Time;durP1;ratioP1;P1;durP2;ratioP2;P2;SDS_P1;SDS_P2;PMS_P1;PMS_P2;Temp;Humidity;BMP_temperature;BMP_pressure;BME280_temperature;BME280_humidity;BME280_pressure;Samples;Min_cycle;Max_cycle;Signal;HPM_P1;HPM_P2
2023/06/01 08:56:59;;;;;;;17.70;7.90;;;;;;;14.29;81.38;102114.06;5151457;27;20321;-72
2023/06/01 08:59:25;;;;;;;17.98;11.10;;;;;;;14.28;83.42;102096.91;5158900;27;20373;-72
2023/06/01 09:01:52;;;;;;;19.40;11.45;;;;;;;14.46;83.05;102104.31;5149284;27;20022;-73
2023/06/01 09:04:18;;;;;;;16.42;10.70;;;;;;;14.57;80.97;102108.22;5151434;27;20030;-73
2023/06/01 09:06:43;;;;;;;19.00;10.63;;;;;;;14.66;77.75;102104.19;5150334;27;20109;-73
2023/06/01 09:09:11;;;;;;;17.67;10.38;;;;;;;14.81;77.91;102094.84;5150219;27;20027;-73
2023/06/01 09:11:36;;;;;;;17.50;10.15;;;;;;;14.76;75.92;102097.41;5151154;27;20030;-74
2023/06/01 09:14:03;;;;;;;23.58;11.48;;;;;;;14.90;76.97;102093.53;5151405;27;20027;-73
2023/06/01 09:16:36;;;;;;;14.88;10.05;;;;;;;14.93;76.64;102092.22;5151053;27;20019;-73
2023/06/01 09:19:02;;;;;;;17.15;10.57;;;;;;;15.03;77.28;102087.09;5151019;27;20350;-73
2023/06/01 09:21:27;;;;;;;19.52;11.00;;;;;;;15.02;76.58;102085.41;5151014;27;20110;-73
2023/06/01 09:23:52;;;;;;;15.10;10.77;;;;;;;15.07;76.97;102078.25;5151286;27;20023;-73
2023/06/01 09:26:25;;;;;;;16.02;11.00;;;;;;;15.12;77.78;102079.47;5150701;27;20113;-73
2023/06/01 09:28:54;;;;;;;16.48;10.98;;;;;;;15.12;79.27;102090.38;5150196;27;20530;-73
2023/06/01 09:31:35;;;;;;;16.90;11.32;;;;;;;15.22;79.51;102086.06;5150812;27;20023;-73
2023/06/01 09:34:03;;;;;;;15.57;10.88;;;;;;;15.21;74.59;102087.13;5151111;27;20091;-73
2023/06/01 09:36:36;;;;;;;18.60;10.30;;;;;;;15.24;74.62;102075.75;5150357;27;20101;-73
2023/06/01 09:39:02;;;;;;;19.20;11.00;;;;;;;15.32;74.87;102071.88;5150918;27;20458;-73
2023/06/01 09:41:43;;;;;;;15.88;11.27;;;;;;;15.36;71.74;102073.09;5149361;27;20018;-73
2023/06/01 09:44:08;;;;;;;17.97;10.43;;;;;;;15.53;73.51;102064.31;5150915;27;20022;-73
2023/06/01 09:46:46;;;;;;;16.23;10.80;;;;;;;15.39;72.49;102069.94;5149563;27;20566;-73
2023/06/01 09:49:19;;;;;;;15.93;11.25;;;;;;;15.48;74.03;102073.19;5156885;27;20472;-73
2023/06/01 09:51:45;;;;;;;15.93;11.10;;;;;;;15.44;69.36;102065.69;5153748;27;20034;-73
2023/06/01 09:54:20;;;;;;;16.20;10.75;;;;;;;15.48;69.20;102072.38;5150386;27;20358;-73
2023/06/01 09:56:46;;;;;;;18.15;11.25;;;;;;;15.59;69.35;102057.94;5166187;27;20103;-74
2023/06/01 09:59:11;;;;;;;18.10;11.48;;;;;;;15.71;68.56;102056.09;5150248;27;20403;-74
2023/06/01 10:01:36;;;;;;;16.73;10.95;;;;;;;15.91;70.32;102055.03;5146859;27;20433;-76
2023/06/01 10:04:04;;;;;;;19.70;11.05;;;;;;;16.04;69.80;102056.75;5149224;27;20444;-73
2023/06/01 10:06:35;;;;;;;19.02;10.88;;;;;;;16.25;69.50;102061.69;5145123;27;20362;-74
2023/06/01 10:09:01;;;;;;;15.95;10.85;;;;;;;16.30;66.05;102055.50;5136124;27;20027;-74
2023/06/01 10:11:28;;;;;;;19.02;11.77;;;;;;;16.44;66.81;102054.25;5136368;27;20039;-74
2023/06/01 10:13:56;;;;;;;18.55;11.02;;;;;;;16.47;65.78;102061.97;5135394;27;20026;-74
2023/06/01 10:16:21;;;;;;;20.50;10.98;;;;;;;16.51;64.95;102051.41;5135552;27;20026;-74
2023/06/01 10:18:48;;;;;;;20.05;10.95;;;;;;;16.58;65.53;102054.84;5135983;27;20361;-73
2023/06/01 10:21:13;;;;;;;17.90;11.02;;;;;;;16.55;64.08;102058.06;5134495;27;20020;-74
2023/06/01 10:23:40;;;;;;;20.13;11.10;;;;;;;16.53;64.02;102053.91;5135891;27;20026;-74
2023/06/01 10:26:12;;;;;;;19.50;11.40;;;;;;;16.66;65.89;102046.28;5134526;27;20049;-76
2023/06/01 10:28:39;;;;;;;17.90;10.82;;;;;;;16.75;63.10;102046.78;5134739;27;20582;-77
2023/06/01 10:31:37;;;;;;;21.55;12.30;;;;;;;16.89;62.98;102049.31;5135457;27;20366;-73
2023/06/01 10:34:03;;;;;;;17.20;10.88;;;;;;;16.84;61.70;102042.63;5135788;27;20023;-74
2023/06/01 10:36:51;;;;;;;17.77;11.40;;;;;;;16.90;63.65;102051.00;5134986;27;20033;-75
2023/06/01 10:39:28;;;;;;;19.08;11.40;;;;;;;16.95;61.72;102037.41;5105806;27;20035;-73
2023/06/01 10:41:56;;;;;;;20.67;10.85;;;;;;;17.08;61.18;102042.66;5135568;27;20032;-79
2023/06/01 10:44:40;;;;;;;19.17;11.80;;;;;;;17.09;62.24;102047.06;5133850;27;20035;-77
2023/06/01 10:47:25;;;;;;;18.05;12.05;;;;;;;17.18;62.64;102042.88;5135529;27;20026;-72
2023/06/01 10:49:50;;;;;;;18.58;11.50;;;;;;;17.38;61.31;102030.69;5123360;27;20039;-77
2023/06/01 10:52:28;;;;;;;16.80;11.63;;;;;;;17.49;62.54;102043.50;5135171;27;20457;-75
2023/06/01 10:54:54;;;;;;;19.98;12.40;;;;;;;17.49;61.29;102039.94;5134813;27;20289;-74
2023/06/01 10:57:23;;;;;;;16.90;11.68;;;;;;;17.56;62.93;102040.66;5135084;27;20030;-73
2023/06/01 11:00:26;;;;;;;18.02;11.35;;;;;;;17.70;62.37;102041.19;5132827;27;20469;-74
2023/06/01 11:03:04;;;;;;;17.95;11.52;;;;;;;17.62;60.20;102036.94;5131370;27;20074;-75
2023/06/01 11:05:40;;;;;;;19.10;12.90;;;;;;;17.44;59.85;102032.47;5134888;27;20031;-76
2023/06/01 11:08:31;;;;;;;15.45;10.73;;;;;;;17.60;59.95;102038.25;5134722;27;20059;-75
2023/06/01 11:10:58;;;;;;;18.63;10.90;;;;;;;17.63;56.50;102026.81;5135343;27;20092;-73
2023/06/01 11:13:34;;;;;;;19.50;11.18;;;;;;;17.79;57.05;102023.28;5135116;27;20020;-73
2023/06/01 11:16:20;;;;;;;18.75;11.38;;;;;;;17.88;57.09;102037.44;5133876;27;20023;-73
2023/06/01 11:18:57;;;;;;;17.42;11.13;;;;;;;18.00;57.06;102020.97;5134084;27;20026;-75
2023/06/01 11:21:26;;;;;;;15.90;11.02;;;;;;;18.09;56.89;102022.22;5134418;27;20414;-74
2023/06/01 11:23:56;;;;;;;14.43;10.48;;;;;;;18.25;57.23;102020.56;5135125;27;20026;-73
2023/06/01 11:26:25;;;;;;;18.40;12.70;;;;;;;18.14;57.04;102016.00;5133578;27;20027;-73
2023/06/01 11:28:52;;;;;;;18.75;12.63;;;;;;;18.26;56.90;102019.50;5135025;27;20504;-75
2023/06/01 11:31:19;;;;;;;20.40;12.43;;;;;;;18.20;56.31;102012.28;5134800;27;20023;-75
2023/06/01 11:33:53;;;;;;;20.05;11.95;;;;;;;18.31;57.13;102016.84;5134956;27;20026;-75
2023/06/01 11:36:24;;;;;;;16.35;11.82;;;;;;;18.36;56.94;102018.84;5134612;27;20027;-75
2023/06/01 11:38:51;;;;;;;17.08;11.15;;;;;;;18.57;57.39;102020.84;5133505;27;20023;-74
2023/06/01 11:41:16;;;;;;;21.15;11.13;;;;;;;18.56;55.65;102018.34;5134655;27;20026;-74
2023/06/01 11:43:42;;;;;;;19.27;10.50;;;;;;;18.71;56.06;102020.50;5134843;27;20033;-73
2023/06/01 11:46:09;;;;;;;15.18;10.07;;;;;;;18.67;55.42;102019.31;5134664;27;20373;-76
2023/06/01 11:48:35;;;;;;;19.88;9.73;;;;;;;18.83;56.67;102007.50;5134188;27;20514;-73
2023/06/01 11:51:01;;;;;;;17.80;9.90;;;;;;;19.02;55.08;102012.72;5134643;27;20023;-73
2023/06/01 11:53:27;;;;;;;15.50;9.77;;;;;;;18.99;53.93;102010.47;5134343;27;20054;-76
2023/06/01 11:55:55;;;;;;;13.75;9.50;;;;;;;18.91;53.02;102014.50;5133043;27;20039;-73
2023/06/01 11:58:26;;;;;;;10.90;8.75;;;;;;;18.92;52.83;102006.00;5132263;27;20034;-74
2023/06/01 12:00:56;;;;;;;12.32;8.60;;;;;;;18.97;53.61;102002.50;5132103;27;20099;-74
2023/06/01 12:03:24;;;;;;;14.70;9.20;;;;;;;18.85;53.15;102004.50;5134252;27;20110;-74
2023/06/01 12:05:49;;;;;;;17.42;9.50;;;;;;;18.92;53.42;101996.97;5127118;27;20027;-72
2023/06/01 12:08:18;;;;;;;11.95;8.43;;;;;;;19.15;53.52;102006.88;5113738;28;20500;-74
2023/06/01 12:10:48;;;;;;;15.23;8.77;;;;;;;19.25;53.09;101997.94;5113765;28;20077;-78
2023/06/01 12:13:15;;;;;;;11.65;8.40;;;;;;;19.21;52.35;101994.03;5113427;28;20019;-77
2023/06/01 12:15:40;;;;;;;12.43;8.27;;;;;;;19.20;52.34;101992.38;5113345;28;20023;-74
2023/06/01 12:18:06;;;;;;;12.07;8.40;;;;;;;19.29;51.52;101988.94;5126149;27;20077;-75
2023/06/01 12:20:36;;;;;;;14.35;9.02;;;;;;;19.38;51.42;101988.47;5133844;27;20023;-75
2023/06/01 12:23:22;;;;;;;13.18;8.23;;;;;;;19.64;52.36;101993.19;5132469;27;20118;-74
2023/06/01 12:25:56;;;;;;;14.43;8.07;;;;;;;19.81;51.40;101984.84;5132231;27;20042;-73
2023/06/01 12:28:24;;;;;;;14.15;8.45;;;;;;;19.97;50.89;101977.59;5133787;27;20019;-72
2023/06/01 12:31:07;;;;;;;12.95;8.07;;;;;;;20.09;50.84;101979.34;5132668;27;20455;-72
2023/06/01 12:33:35;;;;;;;14.02;8.32;;;;;;;19.93;49.08;101995.69;5133725;27;20019;-74
2023/06/01 12:36:06;;;;;;;15.88;8.00;;;;;;;19.79;49.08;101975.22;5132506;27;20099;-71
2023/06/01 12:38:52;;;;;;;11.57;7.28;;;;;;;19.95;50.45;101985.25;5132579;27;20046;-71
2023/06/01 12:41:18;;;;;;;13.20;7.60;;;;;;;19.98;49.58;101976.50;5131959;27;20080;-74
2023/06/01 12:43:45;;;;;;;12.23;7.60;;;;;;;20.09;49.92;101974.66;5126837;27;20031;-73
2023/06/01 12:46:26;;;;;;;12.25;8.48;;;;;;;19.94;49.98;101977.28;5114802;27;20142;-72
2023/06/01 12:49:10;;;;;;;;;;;;;;;20.13;50.66;101977.72;5133225;27;20023;-75
2023/06/01 12:51:36;;;;;;;11.90;7.03;;;;;;;20.21;48.96;101968.16;5133624;27;19907;-75
2023/06/01 12:54:02;;;;;;;13.02;8.15;;;;;;;20.29;48.81;101970.41;5133710;27;20023;-73
2023/06/01 12:56:27;;;;;;;11.90;6.63;;;;;;;20.54;47.94;101970.59;5133377;27;20457;-74
2023/06/01 12:58:53;;;;;;;16.27;7.43;;;;;;;20.58;47.92;101975.56;5133500;27;20035;-76
2023/06/01 13:01:18;;;;;;;12.07;7.22;;;;;;;20.60;47.19;101974.22;5131191;27;20019;-74
2023/06/01 13:03:44;;;;;;;10.55;6.10;;;;;;;20.75;48.16;101975.44;5132082;28;20058;-74
2023/06/01 13:06:10;;;;;;;13.32;6.85;;;;;;;20.73;46.90;101972.09;5132173;28;20023;-73
2023/06/01 13:08:35;;;;;;;11.88;7.00;;;;;;;20.70;45.66;101968.81;5132659;27;20034;-75
2023/06/01 13:11:00;;;;;;;12.90;7.25;;;;;;;20.63;46.15;101970.13;5133488;27;20102;-72
2023/06/01 13:13:26;;;;;;;10.70;6.95;;;;;;;20.85;46.76;101967.25;5131894;28;20027;-73
2023/06/01 13:15:51;;;;;;;12.63;6.90;;;;;;;20.77;46.74;101973.25;5133398;27;20362;-74
2023/06/01 13:18:16;;;;;;;11.45;6.80;;;;;;;20.88;46.76;101970.28;5132116;28;20019;-73
2023/06/01 13:20:42;;;;;;;14.25;6.68;;;;;;;21.04;46.02;101962.91;5131861;28;20027;-73
2023/06/01 13:23:08;;;;;;;12.60;6.78;;;;;;;21.19;46.39;101970.41;5132082;27;20546;-73
2023/06/01 13:25:34;;;;;;;12.82;6.55;;;;;;;21.31;45.77;101961.91;5131977;27;20023;-78
2023/06/01 13:28:00;;;;;;;14.00;6.40;;;;;;;21.10;45.41;101966.53;5132166;27;20106;-73
2023/06/01 13:30:26;;;;;;;13.95;7.65;;;;;;;20.98;46.96;101963.16;5136918;27;20384;-75
2023/06/01 13:32:51;;;;;;;11.10;6.88;;;;;;;20.97;47.61;101967.84;5152701;27;20019;-72
2023/06/01 13:35:16;;;;;;;10.73;7.05;;;;;;;21.00;46.80;101956.31;5145562;27;20015;-76
2023/06/01 13:37:42;;;;;;;12.82;7.40;;;;;;;21.14;46.80;101950.31;5132296;27;20382;-72
2023/06/01 13:40:07;;;;;;;11.07;6.15;;;;;;;21.30;47.08;101965.75;5132539;27;20110;-75
2023/06/01 13:42:33;;;;;;;11.88;6.65;;;;;;;21.11;45.86;101956.34;5133251;27;20023;-75
2023/06/01 13:44:58;;;;;;;11.38;6.30;;;;;;;21.02;46.66;101954.09;5136531;27;20399;-73
2023/06/01 13:47:24;;;;;;;10.75;6.10;;;;;;;21.15;46.78;101952.78;5135066;27;20542;-75
2023/06/01 13:49:50;;;;;;;14.98;6.70;;;;;;;21.13;46.69;101959.66;5143137;27;20027;-74
2023/06/01 13:52:16;;;;;;;10.60;6.60;;;;;;;21.23;46.26;101945.94;5157257;27;20022;-76
2023/06/01 13:54:41;;;;;;;10.45;6.03;;;;;;;21.44;46.52;101952.31;5156328;27;20026;-73
2023/06/01 13:57:07;;;;;;;11.43;6.30;;;;;;;21.37;46.58;101944.31;5155851;27;20019;-74
2023/06/01 13:59:35;;;;;;;10.15;5.45;;;;;;;21.52;46.45;101951.00;5155495;27;20015;-73
2023/06/01 14:02:00;;;;;;;8.52;5.38;;;;;;;21.59;46.18;101941.38;5153656;27;20015;-76
2023/06/01 14:04:26;;;;;;;11.65;5.40;;;;;;;21.34;45.67;101944.03;5156507;27;20068;-74
2023/06/01 14:06:51;;;;;;;10.25;4.80;;;;;;;21.27;46.16;101937.94;5155495;27;20027;-75
2023/06/01 14:09:17;;;;;;;12.02;4.88;;;;;;;21.43;46.71;101942.41;5148380;27;20021;-76
2023/06/01 14:11:42;;;;;;;9.05;4.57;;;;;;;21.57;46.69;101948.25;5136149;27;20122;-74
2023/06/01 14:14:07;;;;;;;11.02;4.88;;;;;;;21.36;46.64;101948.19;5136038;27;20025;-73
2023/06/01 14:16:33;;;;;;;11.82;4.60;;;;;;;21.19;47.19;101939.31;5135267;27;20023;-77
2023/06/01 14:18:58;;;;;;;9.90;4.53;;;;;;;21.21;47.29;101950.88;5135581;27;20023;-74
2023/06/01 14:21:24;;;;;;;12.63;4.88;;;;;;;21.18;46.21;101945.91;5135288;27;20027;-77
2023/06/01 14:23:49;;;;;;;11.05;4.50;;;;;;;21.07;46.26;101934.03;5135982;27;20027;-76
2023/06/01 14:26:15;;;;;;;8.20;4.15;;;;;;;21.12;46.75;101942.34;5135701;27;20027;-73
2023/06/01 14:28:40;;;;;;;8.73;4.25;;;;;;;21.16;46.29;101942.59;5134888;27;20079;-75
2023/06/01 14:31:05;;;;;;;12.52;5.28;;;;;;;21.21;45.62;101937.94;5136160;27;20030;-76
2023/06/01 14:33:31;;;;;;;7.57;4.20;;;;;;;21.16;45.49;101943.41;5135724;27;20062;-74
2023/06/01 14:35:56;;;;;;;10.77;4.18;;;;;;;20.94;45.49;101945.53;5136101;27;20167;-72
2023/06/01 14:38:21;;;;;;;7.00;4.57;;;;;;;20.81;46.73;101946.88;5136112;27;20054;-72
2023/06/01 14:40:47;;;;;;;10.02;4.55;;;;;;;20.81;47.26;101953.19;5136070;27;20026;-74
2023/06/01 14:43:12;;;;;;;8.38;4.25;;;;;;;20.78;48.35;101926.22;5135948;27;20051;-72
2023/06/01 14:45:37;;;;;;;8.13;4.38;;;;;;;20.85;48.67;101928.75;5134746;27;20051;-74
2023/06/01 14:48:03;;;;;;;9.15;4.60;;;;;;;20.70;48.66;101922.06;5135188;27;20058;-74
2023/06/01 14:50:28;;;;;;;7.78;4.30;;;;;;;20.74;49.23;101924.28;5135623;27;20034;-72
2023/06/01 14:52:59;;;;;;;12.88;4.93;;;;;;;20.94;49.78;101927.13;5135752;27;20460;-75
2023/06/01 14:55:24;;;;;;;13.68;4.43;;;;;;;21.09;48.67;101925.50;5135535;27;20420;-73
2023/06/01 14:57:50;;;;;;;9.23;4.38;;;;;;;21.10;47.61;101924.41;5135777;27;20030;-74
2023/06/01 15:00:16;;;;;;;10.43;4.82;;;;;;;21.25;47.76;101921.72;5135490;27;20045;-71
2023/06/01 15:02:42;;;;;;;8.23;4.30;;;;;;;21.18;47.63;101926.63;5133014;27;20023;-74
2023/06/01 15:05:07;;;;;;;9.02;4.32;;;;;;;20.98;48.17;101919.97;5135546;27;20023;-73
2023/06/01 15:07:32;;;;;;;6.78;4.35;;;;;;;20.87;48.71;101926.53;5134030;27;20046;-72
2023/06/01 15:09:58;;;;;;;7.95;4.40;;;;;;;20.89;48.36;101933.44;5135367;27;20027;-71
2023/06/01 15:12:23;;;;;;;10.10;4.80;;;;;;;20.62;48.66;101925.28;5133844;27;20031;-72
2023/06/01 15:14:50;;;;;;;9.18;4.45;;;;;;;20.52;49.05;101923.28;5135264;27;20019;-72
2023/06/01 15:17:16;;;;;;;11.60;3.95;;;;;;;20.81;49.48;101924.84;5135316;27;20041;-71
2023/06/01 15:19:41;;;;;;;8.23;3.88;;;;;;;20.75;49.71;101925.94;5135084;27;20590;-75
2023/06/01 15:22:06;;;;;;;9.00;4.30;;;;;;;20.80;49.57;101939.69;5135158;27;20407;-76
2023/06/01 15:24:31;;;;;;;7.35;4.00;;;;;;;20.77;49.70;101934.72;5134879;27;20034;-73
2023/06/01 15:26:57;;;;;;;7.53;4.20;;;;;;;20.54;50.11;101932.09;5132800;27;20113;-73
2023/06/01 15:29:22;;;;;;;9.27;3.75;;;;;;;20.38;50.86;101927.59;5120544;27;20027;-75
2023/06/01 15:31:47;;;;;;;6.93;3.55;;;;;;;20.64;50.29;101925.84;5114536;28;20122;-74
2023/06/01 15:34:13;;;;;;;8.73;3.90;;;;;;;20.73;49.42;101928.09;5114456;28;20443;-74
2023/06/01 15:36:38;;;;;;;7.07;3.55;;;;;;;20.90;48.92;101934.25;5114004;28;20016;-80
2023/06/01 15:39:03;;;;;;;7.93;3.53;;;;;;;21.04;49.01;101935.38;5114370;28;20039;-72
2023/06/01 15:41:30;;;;;;;11.32;3.40;;;;;;;21.34;48.54;101939.34;5114062;28;20024;-79
2023/06/01 15:43:55;;;;;;;9.73;3.40;;;;;;;21.48;47.81;101944.34;5114053;28;20164;-74
2023/06/01 15:46:20;;;;;;;8.15;3.50;;;;;;;21.94;46.56;101925.97;5112882;28;20110;-72
2023/06/01 15:48:46;;;;;;;5.80;3.05;;;;;;;21.90;46.62;101929.53;5130937;27;20023;-76
2023/06/01 15:51:11;;;;;;;10.80;3.10;;;;;;;21.91;46.23;101923.75;5134598;27;20038;-77
2023/06/01 15:53:36;;;;;;;8.00;3.38;;;;;;;21.98;46.77;101920.72;5134299;27;20412;-73
2023/06/01 15:56:02;;;;;;;10.13;3.00;;;;;;;22.25;46.27;101916.84;5134482;27;20466;-72
2023/06/01 15:58:28;;;;;;;5.65;2.88;;;;;;;21.90;46.76;101926.78;5134154;27;20257;-76
2023/06/01 16:00:53;;;;;;;8.10;2.92;;;;;;;21.24;48.44;101931.06;5131565;27;20030;-75
2023/06/01 16:03:18;;;;;;;5.68;2.83;;;;;;;20.53;49.49;101929.63;5134454;27;20023;-74
2023/06/01 16:05:44;;;;;;;4.70;2.78;;;;;;;20.08;51.23;101928.22;5133687;27;20030;-73
2023/06/01 16:08:09;;;;;;;6.60;3.13;;;;;;;19.64;51.55;101918.19;5134445;27;20058;-70
